KFAF/FAF METAR and TAF weather

Enter ICAO airport designator
Station Type Date Time Source
KFAF METAR 2020/04/05 11:56 UTC NOAA

KFAF 051156Z AUTO 29003KT 10SM FEW005 08/07 A3009 RMK AO2 SLP193 T00840073 10087 20054 53008 $


Station Type Date Time Source
KFAF Decoded METAR 2020/04/05 11:56 UTC NOAA

Fort Eustis / Felker, VA, United States (KFAF) 37-08N 076-37W
Apr 05, 2020 - 07:56 AM EDT / 2020.04.05 1156 UTC
Wind: from the WNW (290 degrees) at 3 MPH (3 KT):0
Visibility: 10 mile(s):0
Sky conditions: mostly clear
Temperature: 47.1 F (8.4 C)
Dew Point: 45.1 F (7.3 C)
Relative Humidity: 92%
Pressure (altimeter): 30.09 in. Hg (1018 hPa)
Pressure tendency: 0.02 inches (0.8 hPa) higher than three hours ago
ob: KFAF 051156Z AUTO 29003KT 10SM FEW005 08/07 A3009 RMK AO2 SLP193 T00840073 10087 20054 53008
cycle: 12

Station Type Date Time Source
KFAF TAF 2020/04/04 04:57 UTC NOAA

TAF TAF
AMD KFAF 040445Z 0404/0418 34009KT 9999 BKN030 QNH2984INS
BECMG 0411/0412 35010G20KT 9999 OVC020 QNH2995INS TX13/0404Z TN08/0412Z LAST NO
AMDS AFT 0404 NEXT 0610

Example: see airport list